sensor_id;sensor_type;location;lat;lon;timestamp;temperature;humidity
51029;DHT22;37054;52.054;8.600;2023-03-29T00:01:16;12.50;42.20
51029;DHT22;37054;52.054;8.600;2023-03-29T00:03:42;12.50;42.30
51029;DHT22;37054;52.054;8.600;2023-03-29T00:06:10;12.50;42.40
51029;DHT22;37054;52.054;8.600;2023-03-29T00:08:39;12.50;42.60
51029;DHT22;37054;52.054;8.600;2023-03-29T00:11:05;12.40;43.20
51029;DHT22;37054;52.054;8.600;2023-03-29T00:13:31;12.40;43.50
51029;DHT22;37054;52.054;8.600;2023-03-29T00:15:57;12.30;44.10
51029;DHT22;37054;52.054;8.600;2023-03-29T00:18:22;12.20;44.60
51029;DHT22;37054;52.054;8.600;2023-03-29T00:20:54;12.10;45.20
51029;DHT22;37054;52.054;8.600;2023-03-29T00:23:20;12.00;45.50
51029;DHT22;37054;52.054;8.600;2023-03-29T00:25:47;11.90;46.20
51029;DHT22;37054;52.054;8.600;2023-03-29T00:28:12;11.80;46.50
51029;DHT22;37054;52.054;8.600;2023-03-29T00:30:39;11.80;46.70
51029;DHT22;37054;52.054;8.600;2023-03-29T00:33:05;11.70;47.70
51029;DHT22;37054;52.054;8.600;2023-03-29T00:35:31;11.70;48.50
51029;DHT22;37054;52.054;8.600;2023-03-29T00:37:57;11.60;49.60
51029;DHT22;37054;52.054;8.600;2023-03-29T00:40:22;11.60;50.40
51029;DHT22;37054;52.054;8.600;2023-03-29T00:42:47;11.50;51.40
51029;DHT22;37054;52.054;8.600;2023-03-29T00:45:17;11.40;52.30
51029;DHT22;37054;52.054;8.600;2023-03-29T00:50:18;11.30;54.00
51029;DHT22;37054;52.054;8.600;2023-03-29T00:52:54;11.20;54.60
51029;DHT22;37054;52.054;8.600;2023-03-29T00:55:21;11.10;55.00
51029;DHT22;37054;52.054;8.600;2023-03-29T00:57:48;11.10;55.50
51029;DHT22;37054;52.054;8.600;2023-03-29T01:00:16;11.00;55.80
51029;DHT22;37054;52.054;8.600;2023-03-29T01:02:45;11.00;56.20
51029;DHT22;37054;52.054;8.600;2023-03-29T01:05:19;11.00;56.40
51029;DHT22;37054;52.054;8.600;2023-03-29T01:07:48;10.90;56.50
51029;DHT22;37054;52.054;8.600;2023-03-29T01:10:21;10.90;56.70
51029;DHT22;37054;52.054;8.600;2023-03-29T01:12:49;10.90;56.90
51029;DHT22;37054;52.054;8.600;2023-03-29T01:15:17;10.90;57.20
51029;DHT22;37054;52.054;8.600;2023-03-29T01:17:43;10.90;57.20
51029;DHT22;37054;52.054;8.600;2023-03-29T01:20:16;10.90;57.30
51029;DHT22;37054;52.054;8.600;2023-03-29T01:22:48;11.00;57.40
51029;DHT22;37054;52.054;8.600;2023-03-29T01:25:29;11.00;57.50
51029;DHT22;37054;52.054;8.600;2023-03-29T01:28:01;11.00;57.50
51029;DHT22;37054;52.054;8.600;2023-03-29T01:33:08;11.00;57.70
51029;DHT22;37054;52.054;8.600;2023-03-29T01:35:46;11.00;57.80
51029;DHT22;37054;52.054;8.600;2023-03-29T01:38:14;11.00;57.90
51029;DHT22;37054;52.054;8.600;2023-03-29T01:40:42;11.10;58.00
51029;DHT22;37054;52.054;8.600;2023-03-29T01:43:15;11.10;58.00
51029;DHT22;37054;52.054;8.600;2023-03-29T01:50:38;11.10;58.10
51029;DHT22;37054;52.054;8.600;2023-03-29T01:53:07;11.10;58.20
51029;DHT22;37054;52.054;8.600;2023-03-29T01:55:36;11.10;58.30
51029;DHT22;37054;52.054;8.600;2023-03-29T01:58:03;11.10;58.30
51029;DHT22;37054;52.054;8.600;2023-03-29T02:00:29;11.10;58.60
51029;DHT22;37054;52.054;8.600;2023-03-29T02:02:57;11.10;58.40
51029;DHT22;37054;52.054;8.600;2023-03-29T02:05:25;11.10;58.40
51029;DHT22;37054;52.054;8.600;2023-03-29T02:07:50;11.10;58.40
51029;DHT22;37054;52.054;8.600;2023-03-29T02:10:17;11.00;58.40
51029;DHT22;37054;52.054;8.600;2023-03-29T02:12:43;11.10;58.50
51029;DHT22;37054;52.054;8.600;2023-03-29T02:15:16;11.10;58.70
51029;DHT22;37054;52.054;8.600;2023-03-29T02:17:43;11.10;58.80
51029;DHT22;37054;52.054;8.600;2023-03-29T02:20:09;11.10;58.80
51029;DHT22;37054;52.054;8.600;2023-03-29T02:22:44;11.10;58.90
51029;DHT22;37054;52.054;8.600;2023-03-29T02:25:10;11.10;58.70
51029;DHT22;37054;52.054;8.600;2023-03-29T02:27:37;11.10;58.90
51029;DHT22;37054;52.054;8.600;2023-03-29T02:30:03;11.10;58.80
51029;DHT22;37054;52.054;8.600;2023-03-29T02:32:39;11.10;58.70
51029;DHT22;37054;52.054;8.600;2023-03-29T02:35:11;11.10;58.50
51029;DHT22;37054;52.054;8.600;2023-03-29T02:37:38;11.10;58.50
51029;DHT22;37054;52.054;8.600;2023-03-29T02:40:06;11.20;58.70
51029;DHT22;37054;52.054;8.600;2023-03-29T02:42:32;11.20;58.50
51029;DHT22;37054;52.054;8.600;2023-03-29T02:44:58;11.20;58.80
51029;DHT22;37054;52.054;8.600;2023-03-29T02:47:29;11.20;58.90
51029;DHT22;37054;52.054;8.600;2023-03-29T02:49:56;11.20;58.90
51029;DHT22;37054;52.054;8.600;2023-03-29T02:52:23;11.20;59.00
51029;DHT22;37054;52.054;8.600;2023-03-29T02:54:50;11.30;58.80
51029;DHT22;37054;52.054;8.600;2023-03-29T02:57:16;11.30;58.90
51029;DHT22;37054;52.054;8.600;2023-03-29T02:59:42;11.30;59.00
51029;DHT22;37054;52.054;8.600;2023-03-29T03:02:09;11.30;59.00
51029;DHT22;37054;52.054;8.600;2023-03-29T03:04:36;11.30;58.90
51029;DHT22;37054;52.054;8.600;2023-03-29T03:07:02;11.30;58.90
51029;DHT22;37054;52.054;8.600;2023-03-29T03:09:29;11.30;58.70
51029;DHT22;37054;52.054;8.600;2023-03-29T03:11:54;11.30;58.60
51029;DHT22;37054;52.054;8.600;2023-03-29T03:14:20;11.40;58.60
51029;DHT22;37054;52.054;8.600;2023-03-29T03:16:47;11.40;58.50
51029;DHT22;37054;52.054;8.600;2023-03-29T03:19:12;11.40;58.30
51029;DHT22;37054;52.054;8.600;2023-03-29T03:21:38;11.40;57.90
51029;DHT22;37054;52.054;8.600;2023-03-29T03:24:03;11.40;57.90
51029;DHT22;37054;52.054;8.600;2023-03-29T03:26:30;11.40;58.10
51029;DHT22;37054;52.054;8.600;2023-03-29T03:28:56;11.50;58.20
51029;DHT22;37054;52.054;8.600;2023-03-29T03:31:21;11.50;58.20
51029;DHT22;37054;52.054;8.600;2023-03-29T03:33:47;11.50;58.00
51029;DHT22;37054;52.054;8.600;2023-03-29T03:36:12;11.50;58.00
51029;DHT22;37054;52.054;8.600;2023-03-29T03:38:38;11.50;58.10
51029;DHT22;37054;52.054;8.600;2023-03-29T03:41:03;11.50;57.90
51029;DHT22;37054;52.054;8.600;2023-03-29T03:43:29;11.50;57.80
51029;DHT22;37054;52.054;8.600;2023-03-29T03:45:54;11.60;57.70
51029;DHT22;37054;52.054;8.600;2023-03-29T03:48:20;11.50;57.70
51029;DHT22;37054;52.054;8.600;2023-03-29T03:50:47;11.50;57.50
51029;DHT22;37054;52.054;8.600;2023-03-29T03:53:13;11.60;57.60
51029;DHT22;37054;52.054;8.600;2023-03-29T03:55:39;11.60;57.60
51029;DHT22;37054;52.054;8.600;2023-03-29T03:58:05;11.60;57.80
51029;DHT22;37054;52.054;8.600;2023-03-29T04:00:32;11.60;57.60
51029;DHT22;37054;52.054;8.600;2023-03-29T04:02:57;11.60;57.80
51029;DHT22;37054;52.054;8.600;2023-03-29T04:05:23;11.60;57.60
51029;DHT22;37054;52.054;8.600;2023-03-29T04:07:48;11.70;57.80
51029;DHT22;37054;52.054;8.600;2023-03-29T04:10:14;11.70;57.80
51029;DHT22;37054;52.054;8.600;2023-03-29T04:12:40;11.70;57.60
51029;DHT22;37054;52.054;8.600;2023-03-29T04:15:05;11.70;57.70
51029;DHT22;37054;52.054;8.600;2023-03-29T04:17:31;11.70;57.70
51029;DHT22;37054;52.054;8.600;2023-03-29T04:19:57;11.70;57.90
51029;DHT22;37054;52.054;8.600;2023-03-29T04:22:23;11.70;57.80
51029;DHT22;37054;52.054;8.600;2023-03-29T04:24:49;11.80;58.00
51029;DHT22;37054;52.054;8.600;2023-03-29T04:27:15;11.80;58.20
51029;DHT22;37054;52.054;8.600;2023-03-29T04:29:40;11.80;57.90
51029;DHT22;37054;52.054;8.600;2023-03-29T04:32:09;11.80;58.10
51029;DHT22;37054;52.054;8.600;2023-03-29T04:34:34;11.90;58.30
51029;DHT22;37054;52.054;8.600;2023-03-29T04:37:00;11.90;58.00
51029;DHT22;37054;52.054;8.600;2023-03-29T04:39:25;11.90;58.00
51029;DHT22;37054;52.054;8.600;2023-03-29T04:41:58;11.90;57.80
51029;DHT22;37054;52.054;8.600;2023-03-29T04:44:24;11.90;57.40
51029;DHT22;37054;52.054;8.600;2023-03-29T04:46:50;11.90;57.60
51029;DHT22;37054;52.054;8.600;2023-03-29T04:49:16;11.90;57.80
51029;DHT22;37054;52.054;8.600;2023-03-29T04:51:42;12.00;57.80
51029;DHT22;37054;52.054;8.600;2023-03-29T04:54:08;12.00;57.80
51029;DHT22;37054;52.054;8.600;2023-03-29T04:56:33;12.00;57.70
51029;DHT22;37054;52.054;8.600;2023-03-29T04:58:59;12.00;57.60
51029;DHT22;37054;52.054;8.600;2023-03-29T05:01:24;12.00;57.50
51029;DHT22;37054;52.054;8.600;2023-03-29T05:03:49;12.10;57.80
51029;DHT22;37054;52.054;8.600;2023-03-29T05:06:15;12.10;57.80
51029;DHT22;37054;52.054;8.600;2023-03-29T05:08:41;12.10;57.70
51029;DHT22;37054;52.054;8.600;2023-03-29T05:11:07;12.00;57.10
51029;DHT22;37054;52.054;8.600;2023-03-29T05:13:33;12.10;57.10
51029;DHT22;37054;52.054;8.600;2023-03-29T05:15:59;12.10;57.10
51029;DHT22;37054;52.054;8.600;2023-03-29T05:18:25;12.20;57.50
51029;DHT22;37054;52.054;8.600;2023-03-29T05:20:50;12.20;57.60
51029;DHT22;37054;52.054;8.600;2023-03-29T05:23:17;12.20;57.10
51029;DHT22;37054;52.054;8.600;2023-03-29T05:25:43;12.20;57.10
51029;DHT22;37054;52.054;8.600;2023-03-29T05:28:08;12.20;56.70
51029;DHT22;37054;52.054;8.600;2023-03-29T05:30:34;12.20;56.40
51029;DHT22;37054;52.054;8.600;2023-03-29T05:33:02;12.20;56.40
51029;DHT22;37054;52.054;8.600;2023-03-29T05:35:29;12.30;56.00
51029;DHT22;37054;52.054;8.600;2023-03-29T05:37:55;12.30;55.70
51029;DHT22;37054;52.054;8.600;2023-03-29T05:40:28;12.30;56.10
51029;DHT22;37054;52.054;8.600;2023-03-29T05:42:53;12.30;55.70
51029;DHT22;37054;52.054;8.600;2023-03-29T05:45:19;12.40;55.60
51029;DHT22;37054;52.054;8.600;2023-03-29T05:47:44;12.50;54.90
51029;DHT22;37054;52.054;8.600;2023-03-29T05:50:10;12.50;55.00
51029;DHT22;37054;52.054;8.600;2023-03-29T05:52:36;12.60;55.00
51029;DHT22;37054;52.054;8.600;2023-03-29T05:55:02;12.70;55.10
51029;DHT22;37054;52.054;8.600;2023-03-29T05:57:28;12.80;54.90
51029;DHT22;37054;52.054;8.600;2023-03-29T05:59:54;12.90;54.80
51029;DHT22;37054;52.054;8.600;2023-03-29T06:02:20;12.90;53.90
51029;DHT22;37054;52.054;8.600;2023-03-29T06:04:46;13.00;54.10
51029;DHT22;37054;52.054;8.600;2023-03-29T06:07:11;13.10;54.00
51029;DHT22;37054;52.054;8.600;2023-03-29T06:09:37;13.10;54.00
51029;DHT22;37054;52.054;8.600;2023-03-29T06:12:03;13.10;53.60
51029;DHT22;37054;52.054;8.600;2023-03-29T06:14:29;13.10;53.00
51029;DHT22;37054;52.054;8.600;2023-03-29T06:16:55;13.20;53.30
51029;DHT22;37054;52.054;8.600;2023-03-29T06:19:20;13.20;52.70
51029;DHT22;37054;52.054;8.600;2023-03-29T06:21:47;13.20;52.10
51029;DHT22;37054;52.054;8.600;2023-03-29T06:24:12;13.10;51.50
51029;DHT22;37054;52.054;8.600;2023-03-29T06:26:38;13.20;51.80
51029;DHT22;37054;52.054;8.600;2023-03-29T06:29:03;13.20;51.50
51029;DHT22;37054;52.054;8.600;2023-03-29T06:31:29;13.30;51.40
51029;DHT22;37054;52.054;8.600;2023-03-29T06:33:55;13.30;51.80
51029;DHT22;37054;52.054;8.600;2023-03-29T06:36:22;13.30;51.40
51029;DHT22;37054;52.054;8.600;2023-03-29T06:38:48;13.40;51.40
51029;DHT22;37054;52.054;8.600;2023-03-29T06:41:13;13.50;52.00
51029;DHT22;37054;52.054;8.600;2023-03-29T06:43:39;13.50;52.20
51029;DHT22;37054;52.054;8.600;2023-03-29T06:46:04;13.60;51.70
51029;DHT22;37054;52.054;8.600;2023-03-29T06:48:36;13.60;51.60
51029;DHT22;37054;52.054;8.600;2023-03-29T06:51:01;13.70;52.00
51029;DHT22;37054;52.054;8.600;2023-03-29T06:53:27;13.80;51.50
51029;DHT22;37054;52.054;8.600;2023-03-29T06:55:52;13.90;51.20
51029;DHT22;37054;52.054;8.600;2023-03-29T06:58:18;14.00;51.20
51029;DHT22;37054;52.054;8.600;2023-03-29T07:00:44;14.10;50.60
51029;DHT22;37054;52.054;8.600;2023-03-29T07:03:09;14.20;50.60
51029;DHT22;37054;52.054;8.600;2023-03-29T07:05:38;14.30;50.80
51029;DHT22;37054;52.054;8.600;2023-03-29T07:08:05;14.30;50.80
51029;DHT22;37054;52.054;8.600;2023-03-29T07:10:32;14.40;51.10
51029;DHT22;37054;52.054;8.600;2023-03-29T07:13:02;14.40;51.30
51029;DHT22;37054;52.054;8.600;2023-03-29T07:15:28;14.40;50.80
51029;DHT22;37054;52.054;8.600;2023-03-29T07:17:53;14.50;51.10
51029;DHT22;37054;52.054;8.600;2023-03-29T07:20:20;14.50;51.00
51029;DHT22;37054;52.054;8.600;2023-03-29T07:22:47;14.60;51.10
51029;DHT22;37054;52.054;8.600;2023-03-29T07:25:13;14.60;50.80
51029;DHT22;37054;52.054;8.600;2023-03-29T07:27:40;14.50;50.50
51029;DHT22;37054;52.054;8.600;2023-03-29T07:30:07;14.60;50.60
51029;DHT22;37054;52.054;8.600;2023-03-29T07:32:37;14.70;51.20
51029;DHT22;37054;52.054;8.600;2023-03-29T07:35:06;14.80;51.50
51029;DHT22;37054;52.054;8.600;2023-03-29T07:37:32;14.80;51.30
51029;DHT22;37054;52.054;8.600;2023-03-29T07:39:59;14.90;51.50
51029;DHT22;37054;52.054;8.600;2023-03-29T07:42:25;14.90;50.80
51029;DHT22;37054;52.054;8.600;2023-03-29T07:44:55;14.90;51.10
51029;DHT22;37054;52.054;8.600;2023-03-29T07:47:20;15.00;51.30
51029;DHT22;37054;52.054;8.600;2023-03-29T07:49:46;15.00;50.30
51029;DHT22;37054;52.054;8.600;2023-03-29T07:52:11;15.00;50.30
51029;DHT22;37054;52.054;8.600;2023-03-29T07:54:37;15.10;50.90
51029;DHT22;37054;52.054;8.600;2023-03-29T07:57:02;15.10;50.60
51029;DHT22;37054;52.054;8.600;2023-03-29T07:59:27;15.10;50.40
51029;DHT22;37054;52.054;8.600;2023-03-29T08:01:53;15.10;50.40
51029;DHT22;37054;52.054;8.600;2023-03-29T08:04:19;15.10;50.40
51029;DHT22;37054;52.054;8.600;2023-03-29T08:06:45;15.10;50.40
51029;DHT22;37054;52.054;8.600;2023-03-29T08:09:11;15.20;50.40
51029;DHT22;37054;52.054;8.600;2023-03-29T08:11:37;15.20;50.20
51029;DHT22;37054;52.054;8.600;2023-03-29T08:14:04;15.20;49.80
51029;DHT22;37054;52.054;8.600;2023-03-29T08:16:30;15.20;49.90
51029;DHT22;37054;52.054;8.600;2023-03-29T08:18:56;15.30;49.90
51029;DHT22;37054;52.054;8.600;2023-03-29T08:21:21;15.30;50.20
51029;DHT22;37054;52.054;8.600;2023-03-29T08:23:47;15.30;50.20
51029;DHT22;37054;52.054;8.600;2023-03-29T08:26:12;15.40;50.10
51029;DHT22;37054;52.054;8.600;2023-03-29T08:28:40;15.40;50.20
51029;DHT22;37054;52.054;8.600;2023-03-29T08:31:06;15.40;49.40
51029;DHT22;37054;52.054;8.600;2023-03-29T08:33:31;15.40;49.30
51029;DHT22;37054;52.054;8.600;2023-03-29T08:35:56;15.40;49.50
51029;DHT22;37054;52.054;8.600;2023-03-29T08:38:22;15.50;49.80
51029;DHT22;37054;52.054;8.600;2023-03-29T08:40:47;15.60;49.40
51029;DHT22;37054;52.054;8.600;2023-03-29T08:43:16;15.70;50.00
51029;DHT22;37054;52.054;8.600;2023-03-29T08:45:48;15.70;49.50
51029;DHT22;37054;52.054;8.600;2023-03-29T08:50:53;15.80;49.50
51029;DHT22;37054;52.054;8.600;2023-03-29T08:53:22;15.90;49.30
51029;DHT22;37054;52.054;8.600;2023-03-29T08:55:49;16.00;48.50
51029;DHT22;37054;52.054;8.600;2023-03-29T08:58:17;16.00;48.40
51029;DHT22;37054;52.054;8.600;2023-03-29T09:01:18;15.90;48.10
51029;DHT22;37054;52.054;8.600;2023-03-29T09:03:38;16.00;48.20
51029;DHT22;37054;52.054;8.600;2023-03-29T09:06:06;16.10;48.10
51029;DHT22;37054;52.054;8.600;2023-03-29T09:08:36;16.10;47.70
51029;DHT22;37054;52.054;8.600;2023-03-29T09:11:17;16.20;47.70
51029;DHT22;37054;52.054;8.600;2023-03-29T09:13:56;16.40;48.30
51029;DHT22;37054;52.054;8.600;2023-03-29T09:21:57;16.90;46.60
51029;DHT22;37054;52.054;8.600;2023-03-29T09:24:27;17.00;47.20
51029;DHT22;37054;52.054;8.600;2023-03-29T09:27:41;17.20;47.20
51029;DHT22;37054;52.054;8.600;2023-03-29T09:29:51;17.30;47.10
51029;DHT22;37054;52.054;8.600;2023-03-29T09:32:21;17.50;46.50
51029;DHT22;37054;52.054;8.600;2023-03-29T09:34:56;17.60;45.60
51029;DHT22;37054;52.054;8.600;2023-03-29T09:37:29;17.70;45.70
51029;DHT22;37054;52.054;8.600;2023-03-29T09:39:56;17.90;46.20
51029;DHT22;37054;52.054;8.600;2023-03-29T09:42:22;18.00;45.70
51029;DHT22;37054;52.054;8.600;2023-03-29T09:44:51;18.00;44.80
51029;DHT22;37054;52.054;8.600;2023-03-29T09:47:20;18.00;44.60
51029;DHT22;37054;52.054;8.600;2023-03-29T09:49:48;17.90;44.30
51029;DHT22;37054;52.054;8.600;2023-03-29T09:52:15;17.90;44.90
51029;DHT22;37054;52.054;8.600;2023-03-29T09:54:41;17.90;44.60
51029;DHT22;37054;52.054;8.600;2023-03-29T09:57:14;18.00;45.00
51029;DHT22;37054;52.054;8.600;2023-03-29T09:59:40;18.10;45.20
51029;DHT22;37054;52.054;8.600;2023-03-29T10:02:06;18.10;45.00
51029;DHT22;37054;52.054;8.600;2023-03-29T10:04:32;18.20;45.50
51029;DHT22;37054;52.054;8.600;2023-03-29T10:06:58;18.30;45.40
51029;DHT22;37054;52.054;8.600;2023-03-29T10:09:24;18.30;45.30
51029;DHT22;37054;52.054;8.600;2023-03-29T10:11:51;18.40;45.50
51029;DHT22;37054;52.054;8.600;2023-03-29T10:16:54;18.70;45.50
51029;DHT22;37054;52.054;8.600;2023-03-29T10:21:48;18.80;45.10
51029;DHT22;37054;52.054;8.600;2023-03-29T10:24:20;18.80;45.00
51029;DHT22;37054;52.054;8.600;2023-03-29T10:26:46;18.90;44.50
51029;DHT22;37054;52.054;8.600;2023-03-29T10:29:13;19.00;44.40
51029;DHT22;37054;52.054;8.600;2023-03-29T10:31:39;19.00;44.20
51029;DHT22;37054;52.054;8.600;2023-03-29T10:34:08;19.10;43.60
51029;DHT22;37054;52.054;8.600;2023-03-29T10:36:34;19.20;43.40
51029;DHT22;37054;52.054;8.600;2023-03-29T10:39:00;19.30;43.60
51029;DHT22;37054;52.054;8.600;2023-03-29T10:41:28;19.40;43.00
51029;DHT22;37054;52.054;8.600;2023-03-29T10:43:57;19.50;43.50
51029;DHT22;37054;52.054;8.600;2023-03-29T10:46:29;19.70;43.60
51029;DHT22;37054;52.054;8.600;2023-03-29T10:48:59;19.80;43.50
51029;DHT22;37054;52.054;8.600;2023-03-29T10:51:28;19.90;43.50
51029;DHT22;37054;52.054;8.600;2023-03-29T10:53:57;20.00;43.70
51029;DHT22;37054;52.054;8.600;2023-03-29T10:56:25;20.00;43.30
51029;DHT22;37054;52.054;8.600;2023-03-29T11:06:22;19.30;42.40
51029;DHT22;37054;52.054;8.600;2023-03-29T11:09:11;19.30;43.00
51029;DHT22;37054;52.054;8.600;2023-03-29T11:11:45;19.30;43.60
51029;DHT22;37054;52.054;8.600;2023-03-29T11:27:21;19.30;44.30
51029;DHT22;37054;52.054;8.600;2023-03-29T11:32:14;19.60;44.80
51029;DHT22;37054;52.054;8.600;2023-03-29T11:35:00;19.80;44.80
51029;DHT22;37054;52.054;8.600;2023-03-29T11:37:31;20.20;44.90
51029;DHT22;37054;52.054;8.600;2023-03-29T11:42:43;20.50;43.40
51029;DHT22;37054;52.054;8.600;2023-03-29T11:45:12;20.40;42.90
51029;DHT22;37054;52.054;8.600;2023-03-29T11:47:39;20.40;42.60
51029;DHT22;37054;52.054;8.600;2023-03-29T11:50:40;20.50;43.00
51029;DHT22;37054;52.054;8.600;2023-03-29T11:53:14;20.40;43.90
51029;DHT22;37054;52.054;8.600;2023-03-29T11:55:41;20.40;44.10
51029;DHT22;37054;52.054;8.600;2023-03-29T11:58:12;20.40;44.50
51029;DHT22;37054;52.054;8.600;2023-03-29T12:00:47;20.60;44.00
51029;DHT22;37054;52.054;8.600;2023-03-29T12:03:21;20.50;44.20
51029;DHT22;37054;52.054;8.600;2023-03-29T12:05:57;20.50;44.60
51029;DHT22;37054;52.054;8.600;2023-03-29T12:08:34;20.40;45.30
51029;DHT22;37054;52.054;8.600;2023-03-29T12:13:52;19.80;46.10
51029;DHT22;37054;52.054;8.600;2023-03-29T12:16:21;19.70;46.90
51029;DHT22;37054;52.054;8.600;2023-03-29T12:18:51;19.50;47.90
51029;DHT22;37054;52.054;8.600;2023-03-29T12:21:19;19.30;49.20
51029;DHT22;37054;52.054;8.600;2023-03-29T12:23:45;19.20;50.10
51029;DHT22;37054;52.054;8.600;2023-03-29T12:34:03;18.70;52.40
51029;DHT22;37054;52.054;8.600;2023-03-29T12:36:49;18.60;53.30
51029;DHT22;37054;52.054;8.600;2023-03-29T12:39:17;18.60;53.90
51029;DHT22;37054;52.054;8.600;2023-03-29T12:41:44;18.50;54.90
51029;DHT22;37054;52.054;8.600;2023-03-29T12:44:14;18.50;56.50
51029;DHT22;37054;52.054;8.600;2023-03-29T12:46:40;18.50;58.40
51029;DHT22;37054;52.054;8.600;2023-03-29T12:49:10;18.50;59.80
51029;DHT22;37054;52.054;8.600;2023-03-29T12:51:36;18.30;59.90
51029;DHT22;37054;52.054;8.600;2023-03-29T12:54:05;18.20;60.20
51029;DHT22;37054;52.054;8.600;2023-03-29T12:56:40;18.10;61.50
51029;DHT22;37054;52.054;8.600;2023-03-29T12:59:15;18.10;61.60
51029;DHT22;37054;52.054;8.600;2023-03-29T13:01:50;18.20;62.20
51029;DHT22;37054;52.054;8.600;2023-03-29T13:04:21;18.30;62.40
51029;DHT22;37054;52.054;8.600;2023-03-29T13:09:19;18.50;62.60
51029;DHT22;37054;52.054;8.600;2023-03-29T13:11:50;18.70;63.30
51029;DHT22;37054;52.054;8.600;2023-03-29T13:14:16;18.90;63.20
51029;DHT22;37054;52.054;8.600;2023-03-29T13:16:43;19.00;62.60
51029;DHT22;37054;52.054;8.600;2023-03-29T13:29:45;19.80;62.70
51029;DHT22;37054;52.054;8.600;2023-03-29T13:32:25;20.00;62.90
51029;DHT22;37054;52.054;8.600;2023-03-29T13:34:56;20.00;61.60
51029;DHT22;37054;52.054;8.600;2023-03-29T13:39:52;20.10;61.70
51029;DHT22;37054;52.054;8.600;2023-03-29T13:45:11;20.10;61.20
51029;DHT22;37054;52.054;8.600;2023-03-29T13:47:39;20.00;60.90
51029;DHT22;37054;52.054;8.600;2023-03-29T13:50:10;19.90;61.30
51029;DHT22;37054;52.054;8.600;2023-03-29T13:52:37;19.90;61.40
51029;DHT22;37054;52.054;8.600;2023-03-29T13:55:06;19.90;61.80
51029;DHT22;37054;52.054;8.600;2023-03-29T13:57:35;19.90;61.80
51029;DHT22;37054;52.054;8.600;2023-03-29T14:00:09;20.00;62.20
51029;DHT22;37054;52.054;8.600;2023-03-29T14:02:47;19.90;62.00
51029;DHT22;37054;52.054;8.600;2023-03-29T14:05:15;20.00;62.40
51029;DHT22;37054;52.054;8.600;2023-03-29T14:07:43;20.10;62.10
51029;DHT22;37054;52.054;8.600;2023-03-29T14:10:11;20.00;61.80
51029;DHT22;37054;52.054;8.600;2023-03-29T14:12:38;20.00;62.40
51029;DHT22;37054;52.054;8.600;2023-03-29T14:15:04;20.10;62.80
51029;DHT22;37054;52.054;8.600;2023-03-29T14:17:30;20.20;62.80
51029;DHT22;37054;52.054;8.600;2023-03-29T14:19:56;20.20;62.60
51029;DHT22;37054;52.054;8.600;2023-03-29T14:22:22;20.20;62.70
51029;DHT22;37054;52.054;8.600;2023-03-29T14:24:51;20.20;62.30
51029;DHT22;37054;52.054;8.600;2023-03-29T14:27:18;20.10;62.20
51029;DHT22;37054;52.054;8.600;2023-03-29T14:29:44;20.00;62.30
51029;DHT22;37054;52.054;8.600;2023-03-29T14:32:11;20.00;62.30
51029;DHT22;37054;52.054;8.600;2023-03-29T14:34:37;19.90;62.40
51029;DHT22;37054;52.054;8.600;2023-03-29T14:37:02;19.80;62.00
51029;DHT22;37054;52.054;8.600;2023-03-29T14:39:30;19.80;61.90
51029;DHT22;37054;52.054;8.600;2023-03-29T14:41:56;19.70;61.80
51029;DHT22;37054;52.054;8.600;2023-03-29T14:44:23;19.50;61.50
51029;DHT22;37054;52.054;8.600;2023-03-29T14:46:50;19.40;61.70
51029;DHT22;37054;52.054;8.600;2023-03-29T14:49:16;19.30;61.70
51029;DHT22;37054;52.054;8.600;2023-03-29T14:51:43;19.20;62.40
51029;DHT22;37054;52.054;8.600;2023-03-29T14:54:09;19.30;63.00
51029;DHT22;37054;52.054;8.600;2023-03-29T14:56:40;19.30;63.10
51029;DHT22;37054;52.054;8.600;2023-03-29T14:59:15;19.30;62.80
51029;DHT22;37054;52.054;8.600;2023-03-29T15:01:45;19.40;62.90
51029;DHT22;37054;52.054;8.600;2023-03-29T15:04:11;19.50;63.20
51029;DHT22;37054;52.054;8.600;2023-03-29T15:06:37;19.50;63.30
51029;DHT22;37054;52.054;8.600;2023-03-29T15:09:04;19.60;63.00
51029;DHT22;37054;52.054;8.600;2023-03-29T15:11:30;19.60;63.30
51029;DHT22;37054;52.054;8.600;2023-03-29T15:14:06;19.70;63.40
51029;DHT22;37054;52.054;8.600;2023-03-29T15:16:36;19.80;63.40
51029;DHT22;37054;52.054;8.600;2023-03-29T15:19:02;19.80;63.70
51029;DHT22;37054;52.054;8.600;2023-03-29T15:21:31;20.00;63.80
51029;DHT22;37054;52.054;8.600;2023-03-29T15:23:58;20.00;63.70
51029;DHT22;37054;52.054;8.600;2023-03-29T15:26:33;20.20;63.60
51029;DHT22;37054;52.054;8.600;2023-03-29T15:29:20;20.20;63.70
51029;DHT22;37054;52.054;8.600;2023-03-29T15:31:55;20.30;63.80
51029;DHT22;37054;52.054;8.600;2023-03-29T15:34:27;20.40;63.60
51029;DHT22;37054;52.054;8.600;2023-03-29T15:36:53;20.50;63.40
51029;DHT22;37054;52.054;8.600;2023-03-29T15:39:19;20.60;63.40
51029;DHT22;37054;52.054;8.600;2023-03-29T15:41:46;20.70;63.10
51029;DHT22;37054;52.054;8.600;2023-03-29T15:44:13;20.70;63.40
51029;DHT22;37054;52.054;8.600;2023-03-29T15:46:39;20.80;63.20
51029;DHT22;37054;52.054;8.600;2023-03-29T15:49:04;20.80;62.80
51029;DHT22;37054;52.054;8.600;2023-03-29T15:51:30;20.80;62.40
51029;DHT22;37054;52.054;8.600;2023-03-29T15:53:56;20.70;62.50
51029;DHT22;37054;52.054;8.600;2023-03-29T15:56:21;20.80;62.40
51029;DHT22;37054;52.054;8.600;2023-03-29T15:58:47;20.80;62.40
51029;DHT22;37054;52.054;8.600;2023-03-29T16:01:20;20.80;62.30
51029;DHT22;37054;52.054;8.600;2023-03-29T16:03:48;20.80;62.40
51029;DHT22;37054;52.054;8.600;2023-03-29T16:06:13;20.70;62.30
51029;DHT22;37054;52.054;8.600;2023-03-29T16:08:40;20.70;61.90
51029;DHT22;37054;52.054;8.600;2023-03-29T16:11:06;20.70;62.10
51029;DHT22;37054;52.054;8.600;2023-03-29T16:13:31;20.60;61.80
51029;DHT22;37054;52.054;8.600;2023-03-29T16:15:57;20.50;61.20
51029;DHT22;37054;52.054;8.600;2023-03-29T16:18:22;20.40;61.00
51029;DHT22;37054;52.054;8.600;2023-03-29T16:20:48;20.30;61.00
51029;DHT22;37054;52.054;8.600;2023-03-29T16:23:13;20.20;60.60
51029;DHT22;37054;52.054;8.600;2023-03-29T16:25:39;20.10;59.90
51029;DHT22;37054;52.054;8.600;2023-03-29T16:28:08;20.00;60.80
51029;DHT22;37054;52.054;8.600;2023-03-29T16:30:34;19.90;60.60
51029;DHT22;37054;52.054;8.600;2023-03-29T16:33:00;19.70;61.10
51029;DHT22;37054;52.054;8.600;2023-03-29T16:35:31;19.70;61.10
51029;DHT22;37054;52.054;8.600;2023-03-29T16:37:57;19.60;60.80
51029;DHT22;37054;52.054;8.600;2023-03-29T16:40:22;19.50;60.60
51029;DHT22;37054;52.054;8.600;2023-03-29T16:42:48;19.40;60.20
51029;DHT22;37054;52.054;8.600;2023-03-29T16:45:13;19.30;60.10
51029;DHT22;37054;52.054;8.600;2023-03-29T16:47:39;19.20;60.80
51029;DHT22;37054;52.054;8.600;2023-03-29T16:50:08;19.20;61.10
51029;DHT22;37054;52.054;8.600;2023-03-29T16:52:33;19.10;61.20